Time;durP1;ratioP1;P1;durP2;ratioP2;P2;SDS_P1;SDS_P2;PMS_P1;PMS_P2;Temp;Humidity;BMP_temperature;BMP_pressure;BME280_temperature;BME280_humidity;BME280_pressure;Samples;Min_cycle;Max_cycle;Signal;HPM_P1;HPM_P2
2022/08/16 00:02:18;;;;;;;12.93;9.48;;;22.30;99.90;;;;;;4971239;28;20027;-39
2022/08/16 00:04:44;;;;;;;12.05;9.20;;;22.20;99.90;;;;;;4968130;28;21187;-39
2022/08/16 00:07:09;;;;;;;15.23;11.35;;;22.20;99.90;;;;;;4969522;28;20053;-39
2022/08/16 00:09:35;;;;;;;13.82;12.35;;;22.20;99.90;;;;;;4968258;28;20039;-39
2022/08/16 00:12:01;;;;;;;14.90;12.82;;;22.10;99.90;;;;;;4968421;28;20081;-35
2022/08/16 00:14:30;;;;;;;12.88;11.23;;;22.10;99.90;;;;;;4972141;28;20077;-36
2022/08/16 00:16:57;;;;;;;16.85;13.07;;;22.10;99.90;;;;;;4971683;28;20043;-37
2022/08/16 00:19:26;;;;;;;13.85;12.38;;;22.00;99.90;;;;;;4969819;28;20504;-35
2022/08/16 00:21:53;;;;;;;15.27;12.35;;;22.00;99.90;;;;;;4966941;28;20055;-35
2022/08/16 00:24:20;;;;;;;13.27;11.73;;;22.00;99.90;;;;;;4968133;28;20039;-36
2022/08/16 00:26:45;;;;;;;13.40;12.00;;;22.00;99.90;;;;;;4970148;28;20049;-35
2022/08/16 00:29:14;;;;;;;13.57;11.20;;;22.00;99.90;;;;;;4969931;28;20495;-35
2022/08/16 00:31:40;;;;;;;13.43;11.52;;;21.90;99.90;;;;;;4968098;28;20420;-35
2022/08/16 00:34:06;;;;;;;15.57;12.10;;;21.90;99.90;;;;;;4969412;28;20496;-34
2022/08/16 00:36:31;;;;;;;12.80;11.18;;;21.90;99.90;;;;;;4971502;28;20045;-36
2022/08/16 00:38:57;;;;;;;17.35;12.30;;;21.90;99.90;;;;;;4969105;28;20038;-35
2022/08/16 00:41:24;;;;;;;14.02;9.68;;;21.90;99.90;;;;;;4969250;28;20768;-34
2022/08/16 00:43:51;;;;;;;13.27;10.63;;;21.90;99.90;;;;;;4972135;28;20043;-35
2022/08/16 00:46:34;;;;;;;12.43;11.05;;;21.80;99.90;;;;;;4970314;28;20039;-35
2022/08/16 00:49:03;;;;;;;14.18;11.70;;;21.80;99.90;;;;;;4971571;28;20039;-35
2022/08/16 00:51:28;;;;;;;12.75;10.55;;;21.80;99.90;;;;;;4969726;28;20038;-35
2022/08/16 00:53:54;;;;;;;12.13;10.57;;;21.70;99.90;;;;;;4950994;28;20039;-35
2022/08/16 00:56:27;;;;;;;12.15;10.88;;;21.70;99.90;;;;;;4968931;28;20047;-35
2022/08/16 00:58:53;;;;;;;13.25;10.93;;;21.60;99.90;;;;;;4969524;28;20043;-34
2022/08/16 01:01:19;;;;;;;13.35;11.57;;;21.60;99.90;;;;;;4969888;28;20085;-35
2022/08/16 01:03:49;;;;;;;14.65;10.63;;;21.70;99.90;;;;;;4970238;28;20719;-35
2022/08/16 01:06:17;;;;;;;14.95;10.60;;;21.70;99.90;;;;;;4969732;28;20137;-35
2022/08/16 01:08:45;;;;;;;11.27;10.07;;;21.70;99.90;;;;;;4953542;28;20085;-34
2022/08/16 01:11:12;;;;;;;14.35;11.13;;;21.70;99.90;;;;;;4947932;28;20101;-35
2022/08/16 01:13:39;;;;;;;13.82;11.25;;;21.60;99.90;;;;;;4963988;28;20519;-35
2022/08/16 01:16:29;;;;;;;14.73;11.30;;;21.60;99.90;;;;;;4968473;28;20038;-35
2022/08/16 01:19:20;;;;;;;13.40;10.23;;;21.60;99.90;;;;;;4968233;28;20051;-35
2022/08/16 01:21:57;;;;;;;11.73;10.48;;;21.50;99.90;;;;;;4970385;28;20057;-34
2022/08/16 01:24:25;;;;;;;12.13;10.65;;;21.50;99.90;;;;;;4967125;28;20480;-34
2022/08/16 01:26:56;;;;;;;13.10;10.48;;;21.50;99.90;;;;;;4969896;28;20105;-34
2022/08/16 01:29:40;;;;;;;11.85;9.43;;;21.50;99.90;;;;;;4969301;28;20035;-35
2022/08/16 01:32:06;;;;;;;10.40;9.15;;;21.50;99.90;;;;;;4967966;28;20046;-34
2022/08/16 01:34:32;;;;;;;13.93;10.32;;;21.50;99.90;;;;;;4969801;28;20034;-34
2022/08/16 01:37:05;;;;;;;13.32;10.52;;;21.50;99.90;;;;;;4951964;28;20046;-38
2022/08/16 01:39:31;;;;;;;11.30;9.85;;;21.40;99.90;;;;;;4969617;28;20501;-35
2022/08/16 01:41:58;;;;;;;12.57;10.38;;;21.30;99.90;;;;;;4951180;28;20101;-36
2022/08/16 01:44:23;;;;;;;13.38;11.45;;;21.30;99.90;;;;;;4966666;28;20045;-35
2022/08/16 01:46:49;;;;;;;14.35;10.35;;;21.20;99.90;;;;;;4968850;28;20038;-34
2022/08/16 01:49:34;;;;;;;11.65;10.50;;;21.20;99.90;;;;;;4968374;28;20042;-35
2022/08/16 01:52:07;;;;;;;12.38;10.35;;;21.20;99.90;;;;;;4968862;28;20547;-34
2022/08/16 01:54:34;;;;;;;15.05;10.77;;;21.20;99.90;;;;;;4968478;28;20128;-35
2022/08/16 01:57:00;;;;;;;11.23;10.02;;;21.20;99.90;;;;;;4967127;28;20046;-35
2022/08/16 01:59:27;;;;;;;15.00;11.32;;;21.20;99.90;;;;;;4968906;28;20050;-34
2022/08/16 02:01:53;;;;;;;15.98;12.23;;;21.20;99.90;;;;;;4967530;28;20074;-35
2022/08/16 02:04:24;;;;;;;13.05;11.43;;;21.20;99.90;;;;;;4949715;28;20038;-35
2022/08/16 02:06:50;;;;;;;13.10;11.15;;;21.10;99.90;;;;;;4966846;28;20047;-35
2022/08/16 02:09:18;;;;;;;16.15;12.30;;;21.10;99.90;;;;;;4966139;28;20035;-35
2022/08/16 02:11:47;;;;;;;14.88;11.70;;;21.00;99.90;;;;;;4952719;28;20042;-34
2022/08/16 02:14:13;;;;;;;14.18;10.63;;;21.00;99.90;;;;;;4964445;28;20062;-35
2022/08/16 02:16:41;;;;;;;12.43;11.13;;;21.00;99.90;;;;;;4968936;28;20081;-34
2022/08/16 02:19:07;;;;;;;12.95;11.05;;;21.00;99.90;;;;;;4965761;28;20070;-35
2022/08/16 02:21:33;;;;;;;11.30;10.07;;;21.00;99.90;;;;;;4961810;28;20124;-35
2022/08/16 02:23:59;;;;;;;12.50;10.65;;;21.00;99.90;;;;;;4950534;28;20101;-34
2022/08/16 02:26:25;;;;;;;14.95;11.32;;;20.90;99.90;;;;;;4968253;28;20039;-38
2022/08/16 02:28:51;;;;;;;12.55;9.85;;;20.90;99.90;;;;;;4968255;28;20163;-34
2022/08/16 02:31:17;;;;;;;10.32;9.02;;;20.90;99.90;;;;;;4966172;28;20075;-44
2022/08/16 02:33:44;;;;;;;14.48;10.60;;;20.90;99.90;;;;;;4949469;28;20199;-34
2022/08/16 02:36:11;;;;;;;12.10;10.07;;;20.90;99.90;;;;;;4966664;28;20059;-34
2022/08/16 02:38:39;;;;;;;12.25;9.95;;;20.90;99.90;;;;;;4967951;28;20031;-34
2022/08/16 02:41:07;;;;;;;11.55;9.43;;;20.90;99.90;;;;;;4964935;28;20128;-34
2022/08/16 02:43:34;;;;;;;12.30;11.00;;;20.90;99.90;;;;;;4966974;28;20050;-34
2022/08/16 02:46:01;;;;;;;12.00;9.20;;;20.90;99.90;;;;;;4967710;28;20529;-37
2022/08/16 02:48:29;;;;;;;10.70;9.60;;;20.80;99.90;;;;;;4968811;28;20039;-34
2022/08/16 02:50:56;;;;;;;11.77;9.68;;;20.80;99.90;;;;;;4949651;28;20054;-34
2022/08/16 02:53:23;;;;;;;11.77;10.25;;;20.80;99.90;;;;;;4963850;28;20133;-34
2022/08/16 02:55:49;;;;;;;13.07;10.00;;;20.80;99.90;;;;;;4967324;28;20178;-34
2022/08/16 02:58:14;;;;;;;12.00;10.18;;;20.80;99.90;;;;;;4966563;28;20117;-34
2022/08/16 03:00:40;;;;;;;12.50;10.63;;;20.70;99.90;;;;;;4968320;28;20552;-34
2022/08/16 03:03:06;;;;;;;11.40;9.38;;;20.60;99.90;;;;;;4969022;28;20061;-35
2022/08/16 03:05:32;;;;;;;10.48;9.18;;;20.60;99.90;;;;;;4968394;28;20039;-35
2022/08/16 03:07:58;;;;;;;11.40;9.80;;;20.60;99.90;;;;;;4966237;28;20047;-35
2022/08/16 03:10:24;;;;;;;13.80;9.30;;;20.50;99.90;;;;;;4951552;28;20070;-34
2022/08/16 03:12:49;;;;;;;13.30;9.52;;;20.50;99.90;;;;;;4964998;28;20206;-34
2022/08/16 03:15:17;;;;;;;11.88;9.65;;;20.50;99.90;;;;;;4967751;28;20058;-35
2022/08/16 03:17:43;;;;;;;10.98;9.45;;;20.50;99.90;;;;;;4967573;28;20038;-34
2022/08/16 03:20:12;;;;;;;12.07;10.57;;;20.50;99.90;;;;;;4964189;28;20082;-34
2022/08/16 03:22:38;;;;;;;10.02;8.15;;;20.40;99.90;;;;;;4952578;28;20062;-38
2022/08/16 03:25:06;;;;;;;12.75;10.73;;;20.40;99.90;;;;;;4969216;28;20042;-35
2022/08/16 03:27:33;;;;;;;11.80;9.98;;;20.40;99.90;;;;;;4972990;28;20512;-34
2022/08/16 03:30:08;;;;;;;11.20;9.13;;;20.40;99.90;;;;;;4971506;28;20089;-34
2022/08/16 03:32:34;;;;;;;11.93;9.00;;;20.30;99.90;;;;;;4953702;28;20039;-35
2022/08/16 03:35:00;;;;;;;12.30;9.38;;;20.30;99.90;;;;;;4972096;28;20054;-35
2022/08/16 03:37:26;;;;;;;10.32;9.27;;;20.30;99.90;;;;;;4970835;28;20035;-34
2022/08/16 03:39:51;;;;;;;12.02;9.07;;;20.20;99.90;;;;;;4969977;28;20432;-34
2022/08/16 03:42:17;;;;;;;12.18;9.80;;;20.20;99.90;;;;;;4967433;28;20039;-33
2022/08/16 03:44:43;;;;;;;15.07;10.50;;;20.20;99.90;;;;;;4970355;28;20047;-33
2022/08/16 03:47:08;;;;;;;17.98;10.88;;;20.10;99.90;;;;;;4971553;28;20523;-34
2022/08/16 03:49:35;;;;;;;16.30;10.75;;;20.00;99.90;;;;;;4956385;28;20444;-33
2022/08/16 03:52:01;;;;;;;12.82;9.68;;;19.90;99.90;;;;;;4968669;28;20596;-35
2022/08/16 03:54:27;;;;;;;10.65;9.10;;;19.90;99.90;;;;;;4972083;28;20126;-34
2022/08/16 03:56:52;;;;;;;12.35;10.90;;;19.90;99.90;;;;;;4965895;28;20047;-37
2022/08/16 03:59:18;;;;;;;12.35;9.35;;;19.80;99.90;;;;;;4954301;28;20046;-34
2022/08/16 04:01:44;;;;;;;11.63;10.40;;;19.80;99.90;;;;;;4969406;28;20042;-34
2022/08/16 04:04:10;;;;;;;11.05;8.70;;;19.70;99.90;;;;;;4968007;28;20061;-35
2022/08/16 04:06:35;;;;;;;13.98;10.88;;;19.60;99.90;;;;;;4969886;28;20030;-34
2022/08/16 04:09:01;;;;;;;14.63;10.23;;;19.60;99.90;;;;;;4969910;28;20403;-35
2022/08/16 04:11:27;;;;;;;12.20;9.18;;;19.60;99.90;;;;;;4969211;28;20108;-34
2022/08/16 04:13:52;;;;;;;13.68;11.02;;;19.60;99.90;;;;;;4956401;28;20038;-38
2022/08/16 04:16:18;;;;;;;12.95;10.23;;;19.60;99.90;;;;;;4953344;28;20054;-34
2022/08/16 04:18:44;;;;;;;13.75;11.18;;;19.60;99.90;;;;;;4969938;28;20042;-34
2022/08/16 04:21:10;;;;;;;11.27;9.32;;;19.60;99.90;;;;;;4968484;28;20406;-35
2022/08/16 04:23:37;;;;;;;14.10;9.30;;;19.50;99.90;;;;;;4966859;28;20098;-34
2022/08/16 04:26:05;;;;;;;13.10;9.77;;;19.50;99.90;;;;;;4969562;28;20066;-34
2022/08/16 04:28:31;;;;;;;13.13;10.32;;;19.50;99.90;;;;;;4970545;28;20038;-34
2022/08/16 04:30:57;;;;;;;12.20;10.02;;;19.50;99.90;;;;;;4969169;28;20053;-34
2022/08/16 04:33:24;;;;;;;12.07;9.95;;;19.60;99.90;;;;;;4966301;28;20543;-34
2022/08/16 04:35:50;;;;;;;16.73;10.20;;;19.60;99.90;;;;;;4972100;28;20093;-34
2022/08/16 04:38:18;;;;;;;10.93;8.65;;;19.50;99.90;;;;;;4969894;28;20039;-34
2022/08/16 04:40:46;;;;;;;16.35;10.30;;;19.50;99.90;;;;;;4967046;28;20051;-34
2022/08/16 04:43:13;;;;;;;11.43;9.40;;;19.50;99.90;;;;;;4949322;28;20538;-34
2022/08/16 04:45:39;;;;;;;12.15;9.27;;;19.50;99.90;;;;;;4972407;28;20039;-34
2022/08/16 04:48:05;;;;;;;11.40;9.48;;;19.50;99.90;;;;;;4969730;28;20125;-34
2022/08/16 04:50:31;;;;;;;13.18;10.68;;;19.50;99.90;;;;;;4967448;28;20457;-34
2022/08/16 04:52:57;;;;;;;11.75;9.25;;;19.50;99.90;;;;;;4971079;28;20034;-34
2022/08/16 04:55:26;;;;;;;11.10;8.90;;;19.50;99.90;;;;;;4970313;28;20039;-35
2022/08/16 04:57:56;;;;;;;12.32;9.50;;;19.50;99.90;;;;;;4950945;28;20475;-34
2022/08/16 05:00:32;;;;;;;14.18;10.13;;;19.40;99.90;;;;;;4967842;28;20821;-34
2022/08/16 05:03:04;;;;;;;12.43;9.10;;;19.40;99.90;;;;;;4966059;28;20045;-35
2022/08/16 05:05:31;;;;;;;9.75;8.23;;;19.40;99.90;;;;;;4968894;28;20085;-34
2022/08/16 05:07:57;;;;;;;11.18;9.50;;;19.40;99.90;;;;;;4968594;28;20102;-34
2022/08/16 05:10:22;;;;;;;12.82;9.50;;;19.40;99.90;;;;;;4967710;28;20042;-41
2022/08/16 05:12:48;;;;;;;14.32;9.82;;;19.40;99.90;;;;;;4969182;28;20045;-35
2022/08/16 05:15:14;;;;;;;13.18;8.88;;;19.40;99.90;;;;;;4964285;28;20081;-34
2022/08/16 05:17:40;;;;;;;10.25;8.40;;;19.40;99.90;;;;;;4952147;28;20050;-34
2022/08/16 05:20:08;;;;;;;10.68;8.50;;;19.40;99.90;;;;;;4968695;28;20042;-34
2022/08/16 05:22:35;;;;;;;12.60;9.55;;;19.50;99.90;;;;;;4965451;28;20501;-34
2022/08/16 05:25:02;;;;;;;11.20;9.30;;;19.50;99.90;;;;;;4969435;28;20035;-35
2022/08/16 05:27:28;;;;;;;11.35;8.48;;;19.50;99.90;;;;;;4964689;28;20039;-34
2022/08/16 05:29:54;;;;;;;10.52;7.47;;;19.50;99.90;;;;;;4952341;28;20046;-34
2022/08/16 05:32:19;;;;;;;10.20;8.43;;;19.50;99.90;;;;;;4967413;28;20047;-34
2022/08/16 05:34:45;;;;;;;12.65;7.90;;;19.50;99.90;;;;;;4949969;28;20066;-39
2022/08/16 05:37:11;;;;;;;14.50;7.93;;;19.60;99.90;;;;;;4967954;28;20039;-34
2022/08/16 05:39:37;;;;;;;13.07;8.95;;;19.70;99.90;;;;;;4969568;28;20376;-34
2022/08/16 05:42:03;;;;;;;12.13;8.07;;;19.70;99.90;;;;;;4968917;28;20436;-34
2022/08/16 05:44:29;;;;;;;10.23;7.53;;;19.80;99.90;;;;;;4967714;28;20058;-34
2022/08/16 05:46:58;;;;;;;12.15;9.50;;;19.80;99.90;;;;;;4967066;28;20489;-35
2022/08/16 05:49:27;;;;;;;10.30;8.23;;;19.90;99.90;;;;;;4964927;28;20063;-34
2022/08/16 05:51:55;;;;;;;10.07;7.85;;;20.00;99.90;;;;;;4966035;28;20047;-34
2022/08/16 05:54:22;;;;;;;14.68;9.23;;;20.10;99.90;;;;;;4966885;28;20176;-34
2022/08/16 05:56:48;;;;;;;11.43;9.80;;;20.10;99.90;;;;;;4967301;28;20038;-34
2022/08/16 05:59:16;;;;;;;14.65;10.45;;;20.20;99.90;;;;;;4966887;28;20041;-34
2022/08/16 06:01:45;;;;;;;14.18;10.32;;;20.20;99.90;;;;;;4964291;28;20049;-35
2022/08/16 06:04:12;;;;;;;12.65;9.52;;;20.20;99.90;;;;;;4965782;28;20031;-34
2022/08/16 06:06:40;;;;;;;13.68;10.45;;;20.20;99.90;;;;;;4949760;28;20554;-34
2022/08/16 06:09:06;;;;;;;13.68;10.02;;;20.30;99.90;;;;;;4970156;28;20105;-35
2022/08/16 06:11:32;;;;;;;14.85;10.00;;;20.40;99.90;;;;;;4955791;28;20496;-35
2022/08/16 06:13:57;;;;;;;12.70;9.68;;;20.50;99.90;;;;;;4964506;28;20041;-34
2022/08/16 06:16:23;;;;;;;14.85;10.07;;;20.60;99.90;;;;;;4961283;28;20042;-40
2022/08/16 06:18:49;;;;;;;12.82;11.30;;;20.70;99.90;;;;;;4969583;28;20035;-34
2022/08/16 06:21:15;;;;;;;11.93;10.10;;;20.80;99.90;;;;;;4964619;28;20043;-33
2022/08/16 06:23:40;;;;;;;11.15;9.70;;;20.80;99.90;;;;;;4964257;28;20059;-34
2022/08/16 06:26:07;;;;;;;11.32;9.50;;;21.00;99.90;;;;;;4964992;28;20563;-39
2022/08/16 06:28:33;;;;;;;13.65;10.35;;;21.20;99.90;;;;;;4964289;28;20137;-35
2022/08/16 06:30:59;;;;;;;16.27;11.88;;;21.40;99.90;;;;;;4965679;28;20043;-34
2022/08/16 06:33:25;;;;;;;14.60;10.95;;;21.50;99.90;;;;;;4968367;28;20055;-33
2022/08/16 06:35:53;;;;;;;11.88;10.35;;;21.60;99.90;;;;;;4968603;28;20123;-34
2022/08/16 06:38:19;;;;;;;12.23;9.75;;;21.70;99.90;;;;;;4969494;28;20183;-34
2022/08/16 06:40:45;;;;;;;16.98;11.15;;;21.80;99.90;;;;;;4969613;28;20117;-41
2022/08/16 06:43:10;;;;;;;15.10;10.73;;;21.90;99.90;;;;;;4969499;28;20137;-34
2022/08/16 06:45:36;;;;;;;13.68;11.35;;;22.00;99.90;;;;;;4953790;28;20043;-34
2022/08/16 06:48:05;;;;;;;14.98;12.45;;;22.10;99.90;;;;;;4968367;28;20489;-34
2022/08/16 06:50:31;;;;;;;17.38;13.05;;;22.10;99.90;;;;;;4970287;28;20041;-34
2022/08/16 06:52:58;;;;;;;17.45;14.25;;;22.20;99.90;;;;;;4952720;28;20043;-34
2022/08/16 06:55:24;;;;;;;22.30;14.85;;;22.20;99.90;;;;;;4967304;28;20034;-34
2022/08/16 06:57:51;;;;;;;18.38;15.15;;;22.20;99.90;;;;;;4968413;28;20098;-34
2022/08/16 07:00:17;;;;;;;21.15;16.00;;;22.20;99.90;;;;;;4968243;28;20035;-34
2022/08/16 07:02:43;;;;;;;16.65;12.73;;;22.20;99.90;;;;;;4964802;28;20058;-35
2022/08/16 07:05:11;;;;;;;19.63;14.30;;;22.30;99.90;;;;;;4965060;28;20515;-34
2022/08/16 07:07:39;;;;;;;18.48;15.48;;;22.30;99.90;;;;;;4964775;28;20039;-34
2022/08/16 07:10:08;;;;;;;20.10;15.95;;;22.30;99.90;;;;;;4968056;28;20043;-34
2022/08/16 07:12:35;;;;;;;19.92;16.83;;;22.30;99.90;;;;;;4966153;28;20460;-34
2022/08/16 07:15:02;;;;;;;21.90;17.00;;;22.30;99.90;;;;;;4961757;28;20041;-35
2022/08/16 07:17:28;;;;;;;20.25;15.80;;;22.40;99.90;;;;;;4968416;28;20077;-34
2022/08/16 07:19:55;;;;;;;21.40;16.13;;;22.40;99.90;;;;;;4969894;28;20112;-34
2022/08/16 07:22:21;;;;;;;19.60;16.20;;;22.40;99.90;;;;;;4969650;28;20062;-34
2022/08/16 07:24:47;;;;;;;19.20;16.30;;;22.40;99.90;;;;;;4963878;28;20046;-39
2022/08/16 07:27:13;;;;;;;17.15;15.35;;;22.40;99.80;;;;;;4951230;28;20453;-34
2022/08/16 07:29:39;;;;;;;21.08;15.10;;;22.40;99.80;;;;;;4970921;28;20062;-34
2022/08/16 07:32:05;;;;;;;19.25;15.40;;;22.40;99.50;;;;;;4967881;28;20086;-34
2022/08/16 07:34:31;;;;;;;20.00;15.52;;;22.40;99.20;;;;;;4969325;28;20093;-34
2022/08/16 07:36:59;;;;;;;18.30;15.13;;;22.50;99.10;;;;;;4967886;28;20039;-35
2022/08/16 07:39:25;;;;;;;19.08;14.77;;;22.60;98.60;;;;;;4968313;28;20088;-34
2022/08/16 07:41:51;;;;;;;17.70;14.48;;;22.60;98.10;;;;;;4965908;28;20436;-34
2022/08/16 07:44:16;;;;;;;14.85;12.23;;;22.70;97.90;;;;;;4969389;28;20046;-34
2022/08/16 07:46:42;;;;;;;20.65;15.68;;;22.80;97.70;;;;;;4950649;28;20047;-34
2022/08/16 07:49:08;;;;;;;20.85;15.20;;;22.90;97.40;;;;;;4965886;28;20376;-34
2022/08/16 07:51:35;;;;;;;22.38;15.88;;;22.90;97.20;;;;;;4968204;28;20080;-35
2022/08/16 07:54:03;;;;;;;22.88;15.95;;;23.00;97.10;;;;;;4965183;28;20078;-35
2022/08/16 07:56:29;;;;;;;22.13;15.00;;;23.00;97.00;;;;;;4968144;28;20035;-35
2022/08/16 07:58:55;;;;;;;17.63;15.25;;;23.00;96.80;;;;;;4969346;28;20047;-34
2022/08/16 08:01:22;;;;;;;21.27;15.77;;;23.10;96.60;;;;;;4968096;28;20101;-34
2022/08/16 08:03:48;;;;;;;24.73;16.23;;;23.10;96.30;;;;;;4966077;28;20085;-34
2022/08/16 08:06:18;;;;;;;18.83;15.18;;;23.20;95.80;;;;;;4950923;28;20042;-34
2022/08/16 08:08:44;;;;;;;17.77;13.63;;;23.20;95.60;;;;;;4969348;28;20035;-35
2022/08/16 08:11:10;;;;;;;18.83;15.80;;;23.30;95.80;;;;;;4971478;28;20373;-35
2022/08/16 08:13:35;;;;;;;15.88;13.70;;;23.40;95.60;;;;;;4968569;28;20047;-35
2022/08/16 08:16:01;;;;;;;17.52;14.85;;;23.50;95.00;;;;;;4970650;28;20370;-35
2022/08/16 08:18:28;;;;;;;17.58;14.73;;;23.50;94.50;;;;;;4969052;28;20042;-34
2022/08/16 08:20:53;;;;;;;15.90;13.75;;;23.50;94.30;;;;;;4970024;28;20053;-34
2022/08/16 08:23:20;;;;;;;15.98;13.63;;;23.60;94.20;;;;;;4969341;28;21268;-47
2022/08/16 08:25:46;;;;;;;17.65;14.10;;;23.70;94.00;;;;;;4968269;28;20479;-34
2022/08/16 08:28:12;;;;;;;16.05;13.70;;;23.70;93.70;;;;;;4964319;28;20528;-35
2022/08/16 08:30:38;;;;;;;18.92;14.88;;;23.80;93.70;;;;;;4969278;28;20039;-34
2022/08/16 08:33:04;;;;;;;17.63;13.80;;;23.80;93.60;;;;;;4971955;28;20038;-35
2022/08/16 08:35:31;;;;;;;14.63;13.10;;;23.90;93.60;;;;;;4966757;28;20507;-34
2022/08/16 08:37:57;;;;;;;16.08;13.43;;;24.00;93.90;;;;;;4951434;28;20117;-35
2022/08/16 08:40:25;;;;;;;14.30;12.10;;;24.10;93.20;;;;;;4972788;28;20045;-34
2022/08/16 08:42:51;;;;;;;16.13;12.85;;;24.10;92.60;;;;;;4968712;28;20130;-35
2022/08/16 08:45:17;;;;;;;16.13;12.73;;;24.20;92.60;;;;;;4969952;28;20125;-34
2022/08/16 08:47:46;;;;;;;12.98;10.52;;;24.20;92.10;;;;;;4969560;28;20043;-34
2022/08/16 08:50:15;;;;;;;15.05;11.93;;;24.30;91.60;;;;;;4970633;28;20761;-35
2022/08/16 08:52:42;;;;;;;24.48;12.98;;;24.40;90.90;;;;;;4971710;28;20400;-34
2022/08/16 08:55:11;;;;;;;15.32;11.73;;;24.50;90.80;;;;;;4968175;28;20614;-35
2022/08/16 08:57:44;;;;;;;12.63;10.07;;;24.50;90.40;;;;;;4964226;28;20488;-34
2022/08/16 09:00:11;;;;;;;;;;;24.60;90.30;;;;;;4971144;28;20101;-35
2022/08/16 09:02:37;;;;;;;13.77;10.77;;;24.70;87.30;;;;;;4967225;28;19929;-35
2022/08/16 09:05:03;;;;;;;17.63;11.70;;;24.70;89.10;;;;;;4967027;28;20039;-34
2022/08/16 09:07:29;;;;;;;13.75;10.02;;;24.80;87.60;;;;;;4968634;28;20042;-41
2022/08/16 09:09:54;;;;;;;14.27;9.55;;;24.90;86.50;;;;;;4969164;28;20109;-34
2022/08/16 09:12:21;;;;;;;10.85;9.73;;;24.90;85.90;;;;;;4969261;28;20042;-34
2022/08/16 09:14:47;;;;;;;11.30;10.10;;;25.00;85.20;;;;;;4970384;28;20046;-36
2022/08/16 09:17:12;;;;;;;15.98;12.27;;;25.00;84.80;;;;;;4972153;28;20134;-36
2022/08/16 09:19:38;;;;;;;14.10;11.68;;;25.10;85.60;;;;;;4967034;28;20064;-35
2022/08/16 09:22:05;;;;;;;14.43;10.75;;;25.00;85.80;;;;;;4969960;28;20123;-34
2022/08/16 09:24:32;;;;;;;15.85;11.43;;;25.10;85.90;;;;;;4969368;28;20042;-35
2022/08/16 09:26:58;;;;;;;11.13;9.90;;;25.20;86.10;;;;;;4971840;28;20057;-44
2022/08/16 09:29:24;;;;;;;12.25;9.75;;;25.30;84.20;;;;;;4968872;28;20031;-34
2022/08/16 09:31:50;;;;;;;11.10;9.10;;;25.30;82.80;;;;;;4971919;28;20046;-35
2022/08/16 09:34:16;;;;;;;10.30;9.10;;;25.40;81.00;;;;;;4970330;28;20513;-35
2022/08/16 09:36:44;;;;;;;8.73;7.45;;;25.40;80.20;;;;;;4970294;28;20057;-35
2022/08/16 09:39:10;;;;;;;9.88;7.20;;;25.40;79.70;;;;;;4967485;28;20043;-35
2022/08/16 09:41:36;;;;;;;9.70;6.78;;;25.50;78.10;;;;;;4953223;28;20098;-35
2022/08/16 09:44:02;;;;;;;10.13;6.20;;;25.50;76.50;;;;;;4952770;28;20057;-35
2022/08/16 09:46:30;;;;;;;8.23;5.65;;;25.60;75.30;;;;;;4964669;28;20039;-36
2022/08/16 09:48:57;;;;;;;10.40;7.20;;;25.70;74.80;;;;;;4970852;28;20086;-36
2022/08/16 09:51:25;;;;;;;7.70;5.75;;;25.80;74.40;;;;;;4970308;28;20089;-35
2022/08/16 09:53:54;;;;;;;16.40;5.82;;;25.80;73.90;;;;;;4969932;28;20046;-36
2022/08/16 09:56:32;;;;;;;9.27;5.57;;;25.90;72.90;;;;;;4967117;28;20050;-35
2022/08/16 09:59:01;;;;;;;10.43;6.03;;;26.10;66.20;;;;;;4968365;28;20042;-38
2022/08/16 10:01:27;;;;;;;12.93;6.82;;;26.20;68.90;;;;;;4969159;28;20392;-42
2022/08/16 10:03:53;;;;;;;9.30;6.80;;;26.30;70.20;;;;;;4973066;28;20042;-34
2022/08/16 10:06:23;;;;;;;8.25;6.28;;;26.40;69.50;;;;;;4972924;28;20082;-35
2022/08/16 10:08:49;;;;;;;8.35;5.93;;;26.50;69.20;;;;;;4970436;28;20069;-37
2022/08/16 10:14:00;;;;;;;5.53;4.30;;;26.60;65.50;;;;;;4967554;28;20050;-34
2022/08/16 10:16:25;;;;;;;6.63;4.30;;;26.70;63.70;;;;;;4969406;28;20066;-36
2022/08/16 10:18:52;;;;;;;5.68;4.32;;;26.70;59.30;;;;;;4950427;28;20035;-36
2022/08/16 10:21:18;;;;;;;6.80;4.38;;;26.80;59.20;;;;;;4965247;28;20492;-34
2022/08/16 10:23:44;;;;;;;5.45;3.75;;;26.80;58.20;;;;;;4965495;28;20046;-34
2022/08/16 10:26:10;;;;;;;4.75;3.22;;;26.90;56.10;;;;;;4956096;28;20081;-39
2022/08/16 10:28:37;;;;;;;3.10;2.42;;;26.90;52.30;;;;;;4969538;28;20042;-35
2022/08/16 10:31:04;;;;;;;4.10;3.05;;;27.00;50.70;;;;;;4966308;28;20053;-35
2022/08/16 10:33:32;;;;;;;4.20;3.30;;;27.10;49.00;;;;;;4968679;28;20182;-42
2022/08/16 10:35:59;;;;;;;5.32;2.58;;;27.10;48.90;;;;;;4965303;28;20053;-43
2022/08/16 10:38:26;;;;;;;6.35;3.00;;;27.20;48.60;;;;;;4969813;28;20361;-35
2022/08/16 10:40:53;;;;;;;4.68;2.38;;;27.30;47.60;;;;;;4968016;28;20042;-35
2022/08/16 10:43:19;;;;;;;5.72;2.67;;;27.50;46.60;;;;;;4949389;28;20051;-35
2022/08/16 10:45:47;;;;;;;5.13;2.85;;;27.60;46.00;;;;;;4968233;28;20101;-39
2022/08/16 10:48:13;;;;;;;6.28;3.38;;;27.70;45.40;;;;;;4969702;28;20118;-35
2022/08/16 10:50:39;;;;;;;6.78;3.63;;;27.70;45.50;;;;;;4966532;28;20169;-34
2022/08/16 10:53:05;;;;;;;5.57;3.47;;;27.80;46.00;;;;;;4968214;28;20531;-36
2022/08/16 10:55:39;;;;;;;3.90;2.90;;;27.80;46.90;;;;;;4965184;28;20065;-35
2022/08/16 10:58:09;;;;;;;4.40;2.92;;;28.00;46.80;;;;;;4965198;28;20054;-35
2022/08/16 11:00:39;;;;;;;4.38;2.83;;;28.10;46.60;;;;;;4965140;28;20046;-36
2022/08/16 11:03:06;;;;;;;4.35;2.40;;;28.20;46.10;;;;;;4963725;28;20057;-34
2022/08/16 11:05:34;;;;;;;8.65;6.50;;;28.20;45.60;;;;;;4966615;28;20397;-35
2022/08/16 11:08:00;;;;;;;8.93;7.15;;;28.30;47.70;;;;;;4962290;28;20129;-38
2022/08/16 11:10:33;;;;;;;5.68;4.45;;;28.30;49.40;;;;;;4967223;28;20061;-38
2022/08/16 11:12:59;;;;;;;8.10;5.13;;;28.40;49.50;;;;;;4968224;28;20043;-37
2022/08/16 11:15:26;;;;;;;7.15;5.75;;;28.50;49.10;;;;;;4968104;28;20463;-35
2022/08/16 11:17:53;;;;;;;8.55;5.38;;;28.50;49.50;;;;;;4969074;28;20409;-41
2022/08/16 11:20:19;;;;;;;8.60;5.32;;;28.70;49.10;;;;;;4964917;28;20492;-35
2022/08/16 11:22:46;;;;;;;8.25;6.13;;;28.70;48.50;;;;;;4969144;28;20055;-35
2022/08/16 11:25:15;;;;;;;10.32;5.10;;;28.70;48.40;;;;;;4967222;28;20117;-35
2022/08/16 11:27:41;;;;;;;7.53;5.40;;;28.70;47.50;;;;;;4967786;28;20480;-35
2022/08/16 11:30:10;;;;;;;7.50;6.30;;;28.70;48.10;;;;;;4966365;28;20500;-35
2022/08/16 11:32:36;;;;;;;8.07;5.20;;;28.70;48.50;;;;;;4966617;28;20082;-36
2022/08/16 11:35:07;;;;;;;8.93;5.10;;;28.80;47.80;;;;;;4966499;28;20501;-35
2022/08/16 11:37:34;;;;;;;6.22;5.38;;;28.90;47.20;;;;;;4963519;28;20035;-37
2022/08/16 11:40:01;;;;;;;8.50;5.40;;;29.00;47.20;;;;;;4965830;28;20047;-45
2022/08/16 11:42:26;;;;;;;6.25;4.25;;;29.10;47.10;;;;;;4967224;28;20043;-36
2022/08/16 11:44:52;;;;;;;9.43;5.53;;;29.20;46.60;;;;;;4971644;28;20097;-37
2022/08/16 11:47:18;;;;;;;6.53;5.45;;;29.20;46.90;;;;;;4972026;28;20516;-35
2022/08/16 11:49:44;;;;;;;9.63;5.95;;;29.30;47.50;;;;;;4971987;28;20039;-35
2022/08/16 11:52:10;;;;;;;8.48;4.32;;;29.40;47.50;;;;;;4970601;28;20054;-36
2022/08/16 11:54:35;;;;;;;5.70;4.85;;;29.50;46.60;;;;;;4971886;28;20046;-37
2022/08/16 11:57:01;;;;;;;7.30;4.28;;;29.80;46.50;;;;;;4952665;28;20050;-36
2022/08/16 11:59:28;;;;;;;5.88;3.90;;;29.90;45.80;;;;;;4973134;28;20400;-39
2022/08/16 12:01:55;;;;;;;5.43;3.95;;;30.00;45.30;;;;;;4969500;28;20046;-36
2022/08/16 12:04:21;;;;;;;3.95;3.47;;;30.10;45.50;;;;;;4970155;28;20054;-35
2022/08/16 12:06:48;;;;;;;4.65;3.60;;;30.20;44.80;;;;;;4969729;28;20039;-35
2022/08/16 12:09:13;;;;;;;7.82;4.93;;;30.10;44.20;;;;;;4971910;28;20125;-35
2022/08/16 12:11:39;;;;;;;5.43;4.57;;;29.90;43.80;;;;;;4969719;28;20551;-45
2022/08/16 12:14:06;;;;;;;6.53;4.43;;;29.80;44.10;;;;;;4968315;28;20122;-35
2022/08/16 12:16:35;;;;;;;6.82;4.35;;;29.70;44.40;;;;;;4971693;28;20500;-51
2022/08/16 12:19:06;;;;;;;4.95;3.97;;;29.80;45.10;;;;;;4969806;28;20122;-35
2022/08/16 12:21:32;;;;;;;8.70;5.50;;;29.90;45.40;;;;;;4971611;28;20035;-35
2022/08/16 12:23:58;;;;;;;7.13;5.10;;;30.10;45.10;;;;;;4970314;28;20047;-35
2022/08/16 12:26:24;;;;;;;7.68;5.93;;;30.20;44.20;;;;;;4971046;28;20042;-35
2022/08/16 12:28:52;;;;;;;11.00;6.25;;;30.10;44.00;;;;;;4972911;28;20039;-35
2022/08/16 12:31:19;;;;;;;6.18;4.90;;;30.00;44.30;;;;;;4969344;28;20035;-35
2022/08/16 12:33:44;;;;;;;6.53;4.57;;;30.00;44.70;;;;;;4970006;28;20436;-35
2022/08/16 12:36:11;;;;;;;13.93;5.28;;;30.10;45.00;;;;;;4968669;28;20046;-35